createdAt,value
2019-05-01T00:01:01.072Z,30.82
2019-05-01T00:02:10.072Z,42.05
2019-05-01T00:03:18.877Z,29.95
2019-05-01T00:04:30.865Z,30.75
2019-05-01T00:05:39.380Z,34.60
2019-05-01T00:06:51.092Z,37.45
2019-05-01T00:07:52.118Z,32.05
2019-05-01T00:08:53.559Z,41.95
2019-05-01T00:09:54.677Z,50.60
2019-05-01T00:10:55.693Z,43.00
2019-05-01T00:11:56.934Z,39.20
2019-05-01T00:12:58.052Z,37.90
2019-05-01T00:13:59.260Z,38.73
2019-05-01T00:15:00.391Z,34.85
2019-05-01T00:16:01.417Z,32.50
2019-05-01T00:17:02.441Z,40.12
2019-05-01T00:18:03.565Z,40.05
2019-05-01T00:19:04.682Z,40.33
2019-05-01T00:20:05.700Z,32.63
2019-05-01T00:21:06.744Z,35.83
2019-05-01T00:22:07.844Z,39.67
2019-05-01T00:23:08.866Z,38.00
2019-05-01T00:24:09.877Z,37.08
2019-05-01T00:25:16.420Z,34.00
2019-05-01T00:26:17.673Z,30.43
2019-05-01T00:27:18.701Z,39.15
2019-05-01T00:28:19.708Z,40.52
2019-05-01T00:29:20.720Z,36.40
2019-05-01T00:30:29.771Z,39.65
2019-05-01T00:31:24.856Z,33.15
2019-05-01T00:32:25.980Z,46.48
2019-05-01T00:33:27.003Z,36.55
2019-05-01T00:34:28.017Z,36.35
2019-05-01T00:35:29.233Z,38.83
2019-05-01T00:36:30.252Z,32.95
2019-05-01T00:37:31.281Z,39.80
2019-05-01T00:38:32.304Z,35.80
2019-05-01T00:39:33.650Z,33.63
2019-05-01T00:40:34.665Z,34.65
2019-05-01T00:41:35.798Z,35.52
2019-05-01T00:42:36.842Z,44.65
2019-05-01T00:43:37.852Z,35.63
2019-05-01T00:44:38.892Z,33.73
2019-05-01T00:45:39.900Z,42.67
2019-05-01T00:46:40.941Z,33.08
2019-05-01T00:47:41.974Z,38.55
2019-05-01T00:48:42.985Z,32.40
2019-05-01T00:49:44.013Z,35.50
2019-05-01T00:50:45.025Z,35.78
2019-05-01T00:51:46.039Z,36.35
2019-05-01T00:52:47.056Z,42.73
2019-05-01T00:53:48.119Z,35.33
2019-05-01T00:54:51.101Z,26.17
2019-05-01T00:55:56.920Z,36.98
2019-05-01T00:56:59.844Z,39.35
2019-05-01T00:58:11.669Z,46.42
2019-05-01T00:59:14.589Z,42.10
2019-05-01T01:00:42.406Z,39.27
2019-05-01T01:01:46.124Z,47.43
2019-05-01T01:02:47.957Z,38.10
2019-05-01T01:03:48.968Z,43.13
2019-05-01T01:04:49.998Z,38.75
2019-05-01T01:05:51.008Z,34.33
2019-05-01T01:06:52.033Z,40.45
2019-05-01T01:07:53.065Z,32.20
2019-05-01T01:08:54.080Z,36.98
2019-05-01T01:09:55.105Z,38.10
2019-05-01T01:10:56.136Z,33.25
2019-05-01T01:11:57.148Z,36.48
2019-05-01T01:12:58.192Z,46.65
2019-05-01T01:13:59.201Z,35.40
2019-05-01T01:15:00.328Z,39.83
2019-05-01T01:16:01.348Z,39.30
2019-05-01T01:17:02.364Z,46.05
2019-05-01T01:18:03.396Z,35.05
2019-05-01T01:19:04.408Z,34.60
2019-05-01T01:20:06.028Z,38.33
2019-05-01T01:21:07.063Z,42.75
2019-05-01T01:22:08.070Z,47.45
2019-05-01T01:23:09.506Z,51.05
2019-05-01T01:24:10.621Z,46.53
2019-05-01T01:25:11.932Z,50.00
2019-05-01T01:26:12.951Z,46.80
2019-05-01T01:27:13.960Z,48.15
2019-05-01T01:28:15.589Z,43.13
2019-05-01T01:29:16.608Z,45.80
2019-05-01T01:30:17.810Z,44.65
2019-05-01T01:31:18.910Z,44.23
2019-05-01T01:32:19.929Z,42.48
2019-05-01T01:33:20.949Z,37.95
2019-05-01T01:34:21.970Z,40.20
2019-05-01T01:35:22.981Z,42.62
2019-05-01T01:36:23.997Z,44.93
2019-05-01T01:37:25.027Z,36.58
2019-05-01T01:38:26.164Z,35.90
2019-05-01T01:39:27.181Z,36.15
2019-05-01T01:40:28.608Z,41.63
2019-05-01T01:41:30.129Z,38.42
2019-05-01T01:42:31.337Z,42.00
2019-05-01T01:43:51.394Z,43.52
2019-05-01T01:45:06.272Z,40.60
2019-05-01T01:46:17.963Z,38.78
2019-05-01T01:47:19.389Z,39.45
2019-05-01T01:48:20.404Z,42.83
2019-05-01T01:49:21.424Z,40.48
2019-05-01T01:50:22.848Z,34.75
2019-05-01T01:51:24.369Z,38.05
2019-05-01T01:52:25.584Z,44.03
2019-05-01T01:53:27.099Z,46.92
2019-05-01T01:54:28.119Z,56.48
2019-05-01T01:55:29.235Z,47.60
2019-05-01T01:56:30.348Z,47.08
2019-05-01T01:57:31.916Z,33.70
2019-05-01T01:58:33.130Z,38.60
2019-05-01T01:59:34.155Z,45.25
2019-05-01T02:00:47.346Z,40.90
2019-05-01T02:02:05.092Z,47.40
2019-05-01T02:03:07.451Z,44.42
2019-05-01T02:04:19.176Z,42.98
2019-05-01T02:05:22.336Z,55.30
2019-05-01T02:06:23.347Z,43.17
2019-05-01T02:07:24.470Z,66.70
2019-05-01T02:08:25.481Z,43.23
2019-05-01T02:09:26.517Z,46.37
2019-05-01T02:10:27.692Z,42.85
2019-05-01T02:11:28.732Z,40.70
2019-05-01T02:12:29.753Z,30.40
2019-05-01T02:13:30.768Z,42.03
2019-05-01T02:14:31.906Z,35.90
2019-05-01T02:15:32.925Z,34.78
2019-05-01T02:16:33.940Z,35.68
2019-05-01T02:17:35.156Z,42.95
2019-05-01T02:18:36.177Z,42.67
2019-05-01T02:19:37.223Z,34.73
2019-05-01T02:20:38.246Z,39.88
2019-05-01T02:21:39.458Z,47.50
2019-05-01T02:22:40.676Z,47.78
2019-05-01T02:23:41.700Z,47.73
2019-05-01T02:24:42.736Z,40.43
2019-05-01T02:25:44.054Z,37.55
2019-05-01T02:26:53.013Z,34.33
2019-05-01T02:28:12.557Z,34.20
2019-05-01T02:29:21.596Z,31.50
2019-05-01T02:30:23.482Z,34.70
2019-05-01T02:31:29.500Z,41.23
2019-05-01T02:32:31.425Z,33.53
2019-05-01T02:33:32.541Z,37.60
2019-05-01T02:34:35.578Z,39.83
2019-05-01T02:35:37.003Z,48.40
2019-05-01T02:36:39.543Z,50.67
2019-05-01T02:37:42.541Z,46.37
2019-05-01T02:38:46.066Z,43.95
2019-05-01T02:39:47.801Z,39.23
2019-05-01T02:40:54.740Z,36.98
2019-05-01T02:41:59.564Z,42.67
2019-05-01T02:43:01.085Z,39.08
2019-05-01T02:44:05.917Z,38.73
2019-05-01T02:45:07.229Z,37.53
2019-05-01T02:46:10.237Z,44.58
2019-05-01T02:47:15.280Z,43.02
2019-05-01T02:48:18.901Z,45.17
2019-05-01T02:49:38.684Z,35.88
2019-05-01T02:50:42.604Z,35.00
2019-05-01T02:51:44.528Z,41.58
2019-05-01T02:52:45.560Z,36.77
2019-05-01T02:53:47.325Z,40.58
2019-05-01T02:54:49.289Z,36.45
2019-05-01T02:56:09.876Z,45.20
2019-05-01T02:57:14.401Z,42.08
2019-05-01T02:58:15.614Z,43.02
2019-05-01T02:59:18.043Z,39.33
2019-05-01T03:00:19.071Z,36.95
2019-05-01T03:01:20.085Z,36.73
2019-05-01T03:02:23.995Z,37.15
2019-05-01T03:03:25.006Z,38.00
2019-05-01T03:04:26.225Z,46.80
2019-05-01T03:05:27.414Z,44.80
2019-05-01T03:06:30.729Z,30.92
2019-05-01T03:07:33.467Z,35.65
2019-05-01T03:08:36.172Z,39.48
2019-05-01T03:09:37.197Z,36.23
2019-05-01T03:10:38.253Z,34.90
2019-05-01T03:11:41.071Z,30.23
2019-05-01T03:12:44.892Z,40.40
2019-05-01T03:13:46.701Z,39.58
2019-05-01T03:14:49.925Z,41.33
2019-05-01T03:15:51.352Z,34.85
2019-05-01T03:16:55.779Z,38.95
2019-05-01T03:18:02.225Z,37.70
2019-05-01T03:19:07.130Z,59.42
2019-05-01T03:20:10.869Z,39.67
2019-05-01T03:21:30.898Z,35.38
2019-05-01T03:22:33.975Z,41.85
2019-05-01T03:23:49.196Z,55.43
2019-05-01T03:24:50.311Z,40.00
2019-05-01T03:25:52.142Z,46.75
2019-05-01T03:26:53.464Z,39.27
2019-05-01T03:27:54.478Z,40.05
2019-05-01T03:28:55.592Z,37.10
2019-05-01T03:29:56.705Z,42.65
2019-05-01T03:30:57.741Z,39.90
2019-05-01T03:32:16.531Z,50.12
2019-05-01T03:33:04.384Z,38.98
2019-05-01T03:34:05.520Z,38.15
2019-05-01T03:35:06.733Z,37.67
2019-05-01T03:36:08.061Z,49.95
2019-05-01T03:37:09.094Z,38.02
2019-05-01T03:38:10.702Z,40.78
2019-05-01T03:39:11.811Z,48.70
2019-05-01T03:40:14.729Z,38.05
2019-05-01T03:41:16.757Z,38.90
2019-05-01T03:42:17.876Z,37.60
2019-05-01T03:43:20.570Z,30.48
2019-05-01T03:44:22.232Z,44.83
2019-05-01T03:45:23.766Z,40.15
2019-05-01T03:46:25.195Z,38.23
2019-05-01T03:47:26.215Z,32.75
2019-05-01T03:48:27.232Z,40.23
2019-05-01T03:49:28.451Z,45.98
2019-05-01T03:50:29.761Z,39.33
2019-05-01T03:51:30.886Z,32.95
2019-05-01T03:52:32.406Z,36.80
2019-05-01T03:53:33.424Z,36.80
2019-05-01T03:54:34.539Z,35.60
2019-05-01T03:55:35.647Z,41.58
2019-05-01T03:56:36.768Z,36.33
2019-05-01T03:57:37.822Z,34.27
2019-05-01T03:58:38.949Z,36.17
2019-05-01T03:59:40.368Z,37.25
2019-05-01T04:00:43.601Z,34.50
2019-05-01T04:02:04.593Z,34.85
2019-05-01T04:03:19.585Z,47.13
2019-05-01T04:04:22.713Z,37.58
2019-05-01T04:05:23.834Z,46.40
2019-05-01T04:06:25.175Z,34.70
2019-05-01T04:07:26.844Z,29.48
2019-05-01T04:08:27.949Z,46.98
2019-05-01T04:09:29.068Z,35.52
2019-05-01T04:10:30.092Z,50.33
2019-05-01T04:11:31.208Z,36.10
2019-05-01T04:12:32.629Z,38.60
2019-05-01T04:13:34.085Z,39.23
2019-05-01T04:14:38.939Z,43.60
2019-05-01T04:15:38.847Z,37.70
2019-05-01T04:16:42.161Z,33.23
2019-05-01T04:17:45.377Z,53.73
2019-05-01T04:18:47.097Z,43.80
2019-05-01T04:19:48.319Z,39.23
2019-05-01T04:20:49.643Z,38.30
2019-05-01T04:21:53.177Z,51.83
2019-05-01T04:22:54.302Z,39.92
2019-05-01T04:23:55.417Z,38.40
2019-05-01T04:24:56.733Z,43.75
2019-05-01T04:25:58.151Z,39.67
2019-05-01T04:27:01.073Z,35.00
2019-05-01T04:28:21.093Z,46.98
2019-05-01T04:29:33.080Z,35.03
2019-05-01T04:30:53.277Z,38.65
2019-05-01T04:32:02.046Z,36.58
2019-05-01T04:33:05.279Z,38.25
2019-05-01T04:34:10.065Z,27.02
2019-05-01T04:35:18.935Z,34.63
2019-05-01T04:36:25.694Z,33.40
2019-05-01T04:37:27.525Z,39.42
2019-05-01T04:38:29.102Z,34.03
2019-05-01T04:39:30.614Z,31.55
2019-05-01T04:40:31.876Z,40.92
2019-05-01T04:41:33.292Z,35.60
2019-05-01T04:43:30.753Z,35.08
2019-05-01T04:44:32.076Z,38.55
2019-05-01T04:45:33.289Z,38.63
2019-05-01T04:46:34.416Z,30.70
2019-05-01T04:47:36.032Z,56.63
2019-05-01T04:48:37.052Z,28.35
2019-05-01T04:49:38.261Z,33.02
2019-05-01T04:50:39.482Z,41.73
2019-05-01T04:51:41.203Z,36.53
2019-05-01T04:52:42.521Z,29.95
2019-05-01T04:53:43.542Z,35.73
2019-05-01T04:54:44.565Z,31.65
2019-05-01T04:55:45.889Z,29.82
2019-05-01T04:56:47.016Z,40.23
2019-05-01T04:57:48.136Z,35.48
2019-05-01T04:58:49.752Z,35.17
2019-05-01T04:59:50.869Z,30.02
2019-05-01T05:00:52.269Z,29.50
2019-05-01T05:01:57.736Z,41.30
2019-05-01T05:03:05.066Z,36.60
2019-05-01T05:04:03.980Z,37.63
2019-05-01T05:05:05.597Z,31.62
2019-05-01T05:06:06.713Z,35.35
2019-05-01T05:07:07.866Z,29.45
2019-05-01T05:08:09.372Z,33.55
2019-05-01T05:09:10.588Z,38.63
2019-05-01T05:10:11.804Z,38.88
2019-05-01T05:11:15.226Z,38.60
2019-05-01T05:12:18.244Z,32.20
2019-05-01T05:13:21.174Z,34.80
2019-05-01T05:14:24.112Z,32.90
2019-05-01T05:15:39.261Z,38.50
2019-05-01T05:16:44.827Z,31.50
2019-05-01T05:17:46.056Z,28.45
2019-05-01T05:18:47.077Z,27.55
2019-05-01T05:19:48.584Z,46.55
2019-05-01T05:20:49.806Z,30.30
2019-05-01T05:21:51.419Z,36.90
2019-05-01T05:22:52.957Z,35.92
2019-05-01T05:23:54.280Z,30.50
2019-05-01T05:24:55.397Z,36.28
2019-05-01T05:25:56.612Z,28.95
2019-05-01T05:26:57.728Z,30.65
2019-05-01T05:27:59.756Z,26.25
2019-05-01T05:29:00.776Z,37.23
2019-05-01T05:30:02.190Z,47.40
2019-05-01T05:31:05.211Z,41.68
2019-05-01T05:32:07.972Z,38.95
2019-05-01T05:33:18.013Z,41.35
2019-05-01T05:34:18.201Z,29.60
2019-05-01T05:35:21.161Z,34.60
2019-05-01T05:36:24.380Z,35.73
2019-05-01T05:37:46.861Z,42.10
2019-05-01T05:38:50.191Z,46.45
2019-05-01T05:39:52.204Z,43.45
2019-05-01T05:40:54.016Z,31.95
2019-05-01T05:41:55.537Z,35.95
2019-05-01T05:42:56.850Z,32.83
2019-05-01T05:43:58.494Z,36.23
2019-05-01T05:45:00.301Z,32.98
2019-05-01T05:46:01.708Z,35.35
2019-05-01T05:47:02.827Z,30.10
2019-05-01T05:48:03.852Z,32.78
2019-05-01T05:49:04.990Z,38.20
2019-05-01T05:50:06.296Z,38.58
2019-05-01T05:51:14.588Z,31.02
2019-05-01T05:52:27.452Z,33.33
2019-05-01T05:53:37.459Z,32.25
2019-05-01T05:54:40.700Z,41.48
2019-05-01T05:55:58.193Z,31.30
2019-05-01T05:57:01.717Z,27.17
2019-05-01T05:58:23.659Z,30.20
2019-05-01T05:59:29.591Z,30.05
2019-05-01T06:00:43.800Z,32.78
2019-05-01T06:01:52.644Z,30.48
2019-05-01T06:02:58.373Z,34.03
2019-05-01T06:04:17.072Z,31.50
2019-05-01T06:05:35.860Z,37.25
2019-05-01T06:06:42.606Z,30.72
2019-05-01T06:08:05.856Z,29.27
2019-05-01T06:09:13.290Z,30.10
2019-05-01T06:10:18.478Z,30.27
2019-05-01T06:11:23.200Z,38.02
2019-05-01T06:12:29.140Z,42.93
2019-05-01T06:13:52.552Z,33.67
2019-05-01T06:14:55.281Z,28.90
2019-05-01T06:16:16.342Z,36.30
2019-05-01T06:17:31.140Z,28.95
2019-05-01T06:18:40.572Z,35.58
2019-05-01T06:19:45.790Z,31.10
2019-05-01T06:20:48.783Z,31.45
2019-05-01T06:22:10.081Z,28.02
2019-05-01T06:23:15.747Z,34.45
2019-05-01T06:24:21.364Z,31.87
2019-05-01T06:25:27.485Z,41.13
2019-05-01T06:26:31.904Z,30.17
2019-05-01T06:27:33.920Z,33.95
2019-05-01T06:28:35.034Z,30.80
2019-05-01T06:29:37.295Z,31.65
2019-05-01T06:30:42.097Z,30.97
2019-05-01T06:31:41.646Z,33.20
2019-05-01T06:32:43.655Z,34.50
2019-05-01T06:33:48.586Z,38.02
2019-05-01T06:34:47.701Z,35.00
2019-05-01T06:35:48.888Z,32.88
2019-05-01T06:36:51.378Z,34.05
2019-05-01T06:38:05.408Z,32.42
2019-05-01T06:39:11.247Z,31.15
2019-05-01T06:40:11.761Z,37.98
2019-05-01T06:41:14.088Z,28.85
2019-05-01T06:42:16.961Z,30.75
2019-05-01T06:43:25.548Z,30.05
2019-05-01T06:44:33.625Z,31.35
2019-05-01T06:45:32.784Z,32.50
2019-05-01T06:46:47.651Z,35.28
2019-05-01T06:47:52.571Z,25.95
2019-05-01T06:49:14.362Z,29.52
2019-05-01T06:50:23.217Z,28.05
2019-05-01T06:51:35.241Z,31.75
2019-05-01T06:52:36.458Z,24.67
2019-05-01T06:53:39.981Z,31.85
2019-05-01T06:54:40.401Z,35.13
2019-05-01T06:55:41.516Z,35.13
2019-05-01T06:56:43.286Z,31.15
2019-05-01T06:57:45.645Z,32.75
2019-05-01T06:58:51.042Z,35.30
2019-05-01T06:59:49.932Z,28.98
2019-05-01T07:00:51.073Z,31.02
2019-05-01T07:01:53.363Z,30.45
2019-05-01T07:02:56.800Z,37.05
2019-05-01T07:04:03.483Z,31.52
2019-05-01T07:05:01.485Z,32.25
2019-05-01T07:06:13.843Z,30.37
2019-05-01T07:07:09.854Z,32.40
2019-05-01T07:08:09.057Z,26.00
2019-05-01T07:09:11.771Z,26.33
2019-05-01T07:10:13.697Z,25.20
2019-05-01T07:11:15.477Z,26.37
2019-05-01T07:12:23.977Z,42.67
2019-05-01T07:13:22.776Z,28.60
2019-05-01T07:14:24.079Z,29.55
2019-05-01T07:15:26.924Z,24.15
2019-05-01T07:16:28.125Z,30.50
2019-05-01T07:17:29.156Z,36.95
2019-05-01T07:18:30.170Z,28.57
2019-05-01T07:19:45.297Z,34.73
2019-05-01T07:20:51.448Z,30.05
2019-05-01T07:21:51.152Z,28.62
2019-05-01T07:22:52.665Z,32.00
2019-05-01T07:23:53.875Z,31.35
2019-05-01T07:24:58.952Z,35.55
2019-05-01T07:25:58.244Z,39.15
2019-05-01T07:26:59.876Z,29.10
2019-05-01T07:28:00.970Z,34.38
2019-05-01T07:29:13.032Z,33.08
2019-05-01T07:30:21.050Z,35.35
2019-05-01T07:31:26.092Z,31.87
2019-05-01T07:32:25.482Z,30.75
2019-05-01T07:33:26.724Z,30.02
2019-05-01T07:34:27.716Z,25.60
2019-05-01T07:35:32.929Z,32.20
2019-05-01T07:36:31.760Z,24.40
2019-05-01T07:37:32.884Z,29.32
2019-05-01T07:38:38.126Z,28.80
2019-05-01T07:39:37.224Z,30.20
2019-05-01T07:40:38.586Z,29.72
2019-05-01T07:41:39.833Z,31.73
2019-05-01T07:42:49.443Z,27.67
2019-05-01T07:44:01.258Z,26.17
2019-05-01T07:45:14.800Z,33.58
2019-05-01T07:46:21.032Z,28.73
2019-05-01T07:47:25.926Z,26.60
2019-05-01T07:48:36.106Z,30.80
2019-05-01T07:49:47.857Z,32.42
2019-05-01T07:50:48.885Z,26.27
2019-05-01T07:51:51.209Z,26.48
2019-05-01T07:52:53.929Z,24.30
2019-05-01T07:53:59.154Z,27.00
2019-05-01T07:54:59.769Z,24.98
2019-05-01T07:56:01.495Z,25.62
2019-05-01T07:57:04.620Z,36.45
2019-05-01T07:58:10.517Z,28.38
2019-05-01T07:59:10.564Z,33.38
2019-05-01T08:00:22.676Z,23.55
2019-05-01T08:01:43.693Z,29.23
2019-05-01T08:02:44.722Z,32.45
2019-05-01T08:03:45.756Z,29.02
2019-05-01T08:04:46.775Z,44.05
2019-05-01T08:05:48.091Z,32.98
2019-05-01T08:06:52.092Z,29.98
2019-05-01T08:07:52.076Z,30.20
2019-05-01T08:08:53.106Z,39.90
2019-05-01T08:09:54.114Z,28.62
2019-05-01T08:10:55.140Z,34.67
2019-05-01T08:11:56.166Z,33.20
2019-05-01T08:13:00.441Z,28.57
2019-05-01T08:14:07.360Z,26.15
2019-05-01T08:15:04.045Z,34.23
2019-05-01T08:16:07.296Z,30.27
2019-05-01T08:17:08.500Z,32.00
2019-05-01T08:18:14.317Z,30.12
2019-05-01T08:19:17.240Z,34.58
2019-05-01T08:20:20.159Z,25.72
2019-05-01T08:21:29.228Z,27.42
2019-05-01T08:22:37.390Z,23.60
2019-05-01T08:23:35.079Z,34.15
2019-05-01T08:24:36.101Z,33.88
2019-05-01T08:25:37.105Z,29.67
2019-05-01T08:26:39.788Z,24.55
2019-05-01T08:27:45.960Z,48.80
2019-05-01T08:29:06.891Z,29.27
2019-05-01T08:30:26.040Z,27.22
2019-05-01T08:31:29.088Z,27.80
2019-05-01T08:32:39.136Z,28.45
2019-05-01T08:33:39.819Z,29.98
2019-05-01T08:34:48.787Z,35.65
2019-05-01T08:35:43.749Z,28.38
2019-05-01T08:36:47.197Z,32.60
2019-05-01T08:37:47.824Z,25.82
2019-05-01T08:38:48.850Z,29.12
2019-05-01T08:39:49.863Z,32.05
2019-05-01T08:40:55.351Z,36.53
2019-05-01T08:41:53.818Z,30.25
2019-05-01T08:42:54.840Z,30.30
2019-05-01T08:43:56.010Z,29.85
2019-05-01T08:45:05.256Z,26.40
2019-05-01T08:46:11.786Z,38.28
2019-05-01T08:47:20.771Z,28.70
2019-05-01T08:48:21.712Z,36.45
2019-05-01T08:49:24.636Z,35.03
2019-05-01T08:50:25.988Z,29.50
2019-05-01T08:51:30.034Z,24.95
2019-05-01T08:52:30.114Z,26.82
2019-05-01T08:53:31.134Z,34.80
2019-05-01T08:54:33.635Z,22.85
2019-05-01T08:55:35.067Z,32.95
2019-05-01T08:56:36.101Z,28.98
2019-05-01T08:57:39.508Z,31.97
2019-05-01T08:58:40.063Z,28.32
2019-05-01T08:59:41.092Z,23.67
2019-05-01T09:00:42.110Z,42.90
2019-05-01T09:01:45.763Z,31.05
2019-05-01T09:02:46.081Z,24.05
2019-05-01T09:03:49.749Z,32.10
2019-05-01T09:05:01.575Z,30.20
2019-05-01T09:05:57.375Z,23.92
2019-05-01T09:06:55.888Z,30.25
2019-05-01T09:07:57.735Z,30.00
2019-05-01T09:09:02.889Z,27.42
2019-05-01T09:10:04.175Z,29.87
2019-05-01T09:11:05.193Z,29.52
2019-05-01T09:12:06.818Z,29.05
2019-05-01T09:13:09.164Z,26.45
2019-05-01T09:14:10.204Z,24.85
2019-05-01T09:15:12.692Z,25.60
2019-05-01T09:16:14.429Z,29.95
2019-05-01T09:17:15.486Z,27.65
2019-05-01T09:18:18.820Z,28.70
2019-05-01T09:19:19.420Z,25.25
2019-05-01T09:20:20.457Z,23.47
2019-05-01T09:21:21.468Z,23.00
2019-05-01T09:22:22.494Z,26.00
2019-05-01T09:23:23.614Z,24.00
2019-05-01T09:24:27.966Z,26.57
2019-05-01T09:25:35.391Z,27.80
2019-05-01T09:26:50.157Z,19.95
2019-05-01T09:27:53.248Z,24.87
2019-05-01T09:28:58.938Z,22.00
2019-05-01T09:30:04.445Z,20.32
2019-05-01T09:31:06.595Z,32.48
2019-05-01T09:32:10.243Z,24.87
2019-05-01T09:33:10.559Z,20.92
2019-05-01T09:34:14.089Z,20.65
2019-05-01T09:35:15.957Z,23.05
2019-05-01T09:36:17.522Z,24.77
2019-05-01T09:37:18.662Z,25.15
2019-05-01T09:38:19.788Z,33.15
2019-05-01T09:39:22.724Z,28.52
2019-05-01T09:40:23.766Z,28.52
2019-05-01T09:41:37.149Z,28.47
2019-05-01T09:42:32.988Z,25.85
2019-05-01T09:43:35.628Z,33.15
2019-05-01T09:44:37.088Z,20.90
2019-05-01T09:45:38.106Z,21.45
2019-05-01T09:46:39.227Z,35.58
2019-05-01T09:47:40.241Z,30.25
2019-05-01T09:48:41.366Z,27.87
2019-05-01T09:49:42.384Z,40.70
2019-05-01T09:50:47.885Z,35.58
2019-05-01T09:51:59.908Z,24.75
2019-05-01T09:53:02.837Z,24.60
2019-05-01T09:54:20.605Z,16.07
2019-05-01T09:55:38.624Z,19.73
2019-05-01T09:56:39.641Z,19.42
2019-05-01T09:57:41.392Z,22.70
2019-05-01T09:58:43.592Z,21.23
2019-05-01T09:59:44.607Z,23.83
2019-05-01T10:00:48.804Z,19.57
2019-05-01T10:01:48.553Z,21.02
2019-05-01T10:02:49.585Z,28.10
2019-05-01T10:03:54.588Z,28.52
2019-05-01T10:04:53.541Z,30.17
2019-05-01T10:05:54.805Z,30.43
2019-05-01T10:06:55.832Z,18.10
2019-05-01T10:08:00.150Z,22.13
2019-05-01T10:08:59.891Z,26.50
2019-05-01T10:10:00.905Z,21.82
2019-05-01T10:11:05.094Z,26.20
2019-05-01T10:12:04.856Z,33.53
2019-05-01T10:13:05.877Z,22.27
2019-05-01T10:14:06.909Z,27.25
2019-05-01T10:15:08.044Z,20.45
2019-05-01T10:16:09.072Z,19.82
2019-05-01T10:17:10.089Z,21.10
2019-05-01T10:18:11.112Z,24.20
2019-05-01T10:19:12.145Z,25.40
2019-05-01T10:20:13.153Z,30.12
2019-05-01T10:21:14.176Z,25.20
2019-05-01T10:22:15.192Z,24.25
2019-05-01T10:23:16.240Z,22.32
2019-05-01T10:24:17.277Z,20.92
2019-05-01T10:25:18.290Z,24.18
2019-05-01T10:26:24.092Z,22.75
2019-05-01T10:27:26.048Z,15.78
2019-05-01T10:28:50.158Z,20.08
2019-05-01T10:30:07.076Z,17.55
2019-05-01T10:31:19.041Z,23.22
2019-05-01T10:32:23.169Z,20.57
2019-05-01T10:33:40.973Z,19.85
2019-05-01T10:34:44.610Z,18.25
2019-05-01T10:36:02.579Z,20.85
2019-05-01T10:37:03.640Z,30.27
2019-05-01T10:38:09.234Z,21.48
2019-05-01T10:39:09.093Z,16.65
2019-05-01T10:40:10.364Z,23.35
2019-05-01T10:41:11.904Z,21.35
2019-05-01T10:42:13.080Z,18.90
2019-05-01T10:43:14.080Z,16.05
2019-05-01T10:44:15.108Z,16.40
2019-05-01T10:45:16.131Z,18.82
2019-05-01T10:46:17.165Z,19.12
2019-05-01T10:47:18.205Z,22.90
2019-05-01T10:48:19.225Z,20.72
2019-05-01T10:49:20.252Z,16.77
2019-05-01T10:50:21.279Z,19.62
2019-05-01T10:51:22.292Z,18.23
2019-05-01T10:52:23.346Z,19.67
2019-05-01T10:53:24.358Z,17.82
2019-05-01T10:54:25.391Z,16.73
2019-05-01T10:55:26.455Z,17.15
2019-05-01T10:56:27.561Z,19.20
2019-05-01T10:57:28.580Z,20.65
2019-05-01T10:58:29.592Z,17.48
2019-05-01T10:59:30.619Z,17.55
2019-05-01T11:00:31.944Z,18.12
2019-05-01T11:01:34.863Z,23.80
2019-05-01T11:02:35.980Z,22.95
2019-05-01T11:03:37.096Z,19.32
2019-05-01T11:04:38.129Z,16.32
2019-05-01T11:05:39.253Z,23.05
2019-05-01T11:06:40.259Z,16.93
2019-05-01T11:07:41.272Z,22.35
2019-05-01T11:08:42.293Z,19.67
2019-05-01T11:09:43.328Z,21.52
2019-05-01T11:10:44.337Z,14.73
2019-05-01T11:11:45.344Z,23.80
2019-05-01T11:12:46.368Z,23.62
2019-05-01T11:13:47.380Z,18.32
2019-05-01T11:14:48.430Z,18.35
2019-05-01T11:15:49.450Z,16.97
2019-05-01T11:16:50.463Z,23.90
2019-05-01T11:17:51.478Z,21.65
2019-05-01T11:18:52.499Z,23.90
2019-05-01T11:19:53.783Z,22.73
2019-05-01T11:20:54.818Z,15.48
2019-05-01T11:21:55.820Z,18.87
2019-05-01T11:22:56.844Z,20.70
2019-05-01T11:23:58.101Z,22.15
2019-05-01T11:24:59.124Z,19.67
2019-05-01T11:26:00.165Z,19.02
2019-05-01T11:27:01.264Z,15.13
2019-05-01T11:28:02.381Z,17.20
2019-05-01T11:29:03.792Z,15.50
2019-05-01T11:30:05.925Z,20.02
2019-05-01T11:31:08.832Z,20.85
2019-05-01T11:32:14.408Z,25.37
2019-05-01T11:33:17.329Z,16.17
2019-05-01T11:34:20.264Z,15.95
2019-05-01T11:35:38.317Z,15.32
2019-05-01T11:36:41.239Z,13.93
2019-05-01T11:37:44.188Z,21.57
2019-05-01T11:38:52.746Z,14.87
2019-05-01T11:39:55.684Z,19.30
2019-05-01T11:40:58.610Z,22.50
2019-05-01T11:42:13.336Z,15.50
2019-05-01T11:43:14.348Z,15.32
2019-05-01T11:44:15.373Z,20.65
2019-05-01T11:45:16.806Z,24.12
2019-05-01T11:46:17.825Z,16.12
2019-05-01T11:47:18.836Z,17.37
2019-05-01T11:48:19.854Z,23.73
2019-05-01T11:49:20.919Z,19.52
2019-05-01T11:50:21.940Z,15.90
2019-05-01T11:51:22.960Z,17.00
2019-05-01T11:52:23.967Z,16.20
2019-05-01T11:53:24.983Z,21.07
2019-05-01T11:54:26.008Z,17.98
2019-05-01T11:55:27.045Z,16.75
2019-05-01T11:56:28.069Z,25.82
2019-05-01T11:57:29.080Z,17.75
2019-05-01T11:58:30.107Z,22.05
2019-05-01T11:59:32.716Z,18.20
2019-05-01T12:00:34.061Z,22.45
2019-05-01T12:01:35.100Z,17.37
2019-05-01T12:02:36.228Z,14.07
2019-05-01T12:03:37.244Z,15.90
2019-05-01T12:04:38.316Z,13.62
2019-05-01T12:05:39.373Z,18.05
2019-05-01T12:06:40.394Z,14.40
2019-05-01T12:07:41.416Z,15.58
2019-05-01T12:08:42.439Z,21.17
2019-05-01T12:09:43.452Z,17.35
2019-05-01T12:10:44.600Z,14.30
2019-05-01T12:11:47.224Z,21.07
2019-05-01T12:12:48.232Z,12.88
2019-05-01T12:13:49.247Z,16.17
2019-05-01T12:14:50.279Z,19.02
2019-05-01T12:15:55.904Z,18.80
2019-05-01T12:16:58.824Z,13.62
2019-05-01T12:17:59.836Z,18.23
2019-05-01T12:19:00.844Z,15.08
2019-05-01T12:20:04.583Z,16.05
2019-05-01T12:21:05.738Z,15.88
2019-05-01T12:22:06.759Z,14.03
2019-05-01T12:23:07.756Z,16.00
2019-05-01T12:24:08.774Z,21.80
2019-05-01T12:25:09.992Z,16.60
2019-05-01T12:26:11.016Z,15.28
2019-05-01T12:27:12.057Z,15.28
2019-05-01T12:28:13.072Z,14.85
2019-05-01T12:29:14.096Z,15.95
2019-05-01T12:30:17.058Z,16.07
2019-05-01T12:31:18.090Z,17.30
2019-05-01T12:32:19.129Z,22.30
2019-05-01T12:33:20.154Z,22.27
2019-05-01T12:34:21.208Z,15.08
2019-05-01T12:35:22.223Z,17.45
2019-05-01T12:36:35.135Z,15.28
2019-05-01T12:37:28.088Z,13.62
2019-05-01T12:38:29.118Z,14.10
2019-05-01T12:39:30.136Z,13.40
2019-05-01T12:40:31.159Z,15.28
2019-05-01T12:41:36.896Z,16.40
2019-05-01T12:42:38.126Z,14.35
2019-05-01T12:43:39.136Z,14.73
2019-05-01T12:44:40.156Z,18.85
2019-05-01T12:45:43.092Z,31.90
2019-05-01T12:46:48.528Z,20.70
2019-05-01T12:47:51.449Z,17.55
2019-05-01T12:48:52.460Z,15.60
2019-05-01T12:49:54.078Z,15.15
2019-05-01T12:50:55.097Z,19.07
2019-05-01T12:52:10.396Z,17.62
2019-05-01T12:53:05.787Z,13.68
2019-05-01T12:54:17.773Z,18.55
2019-05-01T12:55:37.120Z,14.75
2019-05-01T12:56:45.892Z,18.00
2019-05-01T12:57:46.901Z,14.40
2019-05-01T12:58:48.533Z,18.80
2019-05-01T12:59:49.540Z,16.35
2019-05-01T13:00:54.066Z,19.80
2019-05-01T13:01:55.199Z,18.02
2019-05-01T13:02:56.217Z,18.40
2019-05-01T13:03:57.236Z,17.00
2019-05-01T13:04:58.356Z,15.43
2019-05-01T13:05:59.417Z,16.48
2019-05-01T13:07:00.441Z,13.48
2019-05-01T13:08:01.565Z,15.72
2019-05-01T13:09:05.602Z,14.10
2019-05-01T13:10:07.239Z,13.93
2019-05-01T13:11:08.288Z,16.42
2019-05-01T13:12:09.323Z,15.03
2019-05-01T13:13:11.276Z,12.90
2019-05-01T13:14:12.480Z,17.07
2019-05-01T13:15:13.612Z,14.50
2019-05-01T13:16:14.632Z,16.62
2019-05-01T13:17:15.666Z,15.58
2019-05-01T13:18:16.712Z,18.05
2019-05-01T13:19:17.729Z,20.57
2019-05-01T13:20:18.768Z,16.20
2019-05-01T13:21:19.787Z,18.92
2019-05-01T13:22:20.824Z,19.65
2019-05-01T13:23:21.956Z,17.95
2019-05-01T13:24:22.968Z,19.02
2019-05-01T13:25:24.002Z,16.40
2019-05-01T13:26:43.609Z,13.53
2019-05-01T13:27:46.559Z,16.27
2019-05-01T13:28:49.476Z,17.98
2019-05-01T13:29:52.445Z,18.50
2019-05-01T13:30:58.124Z,15.68
2019-05-01T13:32:01.060Z,16.70
2019-05-01T13:33:02.782Z,18.23
2019-05-01T13:34:04.005Z,16.45
2019-05-01T13:35:05.144Z,17.48
2019-05-01T13:36:06.244Z,17.77